Flight Track Log - Related Links

Times and Time Zones

All times are in EDT time to prevent confusion due to time zone crossing. See the SKW6492 flight status page for this flight to view local times or setup timezone preferences in your user account.

Time Position Orientation Groundspeed Altitude Reporting Facility
EDT Latitude Longitude Course Direction KTS MPH feet Rate Location/Type
Thu 09:41:42 PM 39.8500 -104.7667 346° North 188 216 6,800  Level Denver TRACON
Thu 09:42:30 PM 39.8667 -104.8167 293° West 234 269 8,700 2,137 Climbing Denver TRACON
Thu 09:42:55 PM 39.8853 -104.8500 306° West 239 275 9,400 1,862 Climbing Denver Center
Thu 09:43:57 PM 39.9469 -104.9247 317° Northwest 292 336 11,400 2,226 Climbing Denver Center
Thu 09:44:00 PM 40.2560 -104.7984 347° North  Level FlightAware Approximate
Thu 09:44:59 PM 40.0308 -104.8994 13° North 311 358 14,000  Level Denver Center
Thu 09:45:00 PM 40.3578 -104.8304 346° North  Level FlightAware Approximate
Thu 09:46:00 PM 40.4594 -104.8642 346° North  Level FlightAware Approximate
Thu 09:46:01 PM 40.1161 -104.8900 North 313 360 15,800  Level Denver Center
Thu 09:47:03 PM 40.2181 -104.8847 North 336 387 17,500 1,355 Climbing Denver Center
Thu 09:48:05 PM 40.3133 -104.8811 North 343 395 18,600 1,403 Climbing Denver Center
Thu 09:49:07 PM 40.4217 -104.8733 North 360 414 20,400 1,790 Climbing Denver Center
Thu 09:50:09 PM 40.5183 -104.8686 North 349 402 22,300 1,597 Climbing Denver Center
Thu 09:51:11 PM 40.6275 -104.8622 North 353 406 23,700 1,191 Climbing Denver Center
Thu 09:52:25 PM 40.7247 -104.8583 North 354 407 25,000 1,139 Climbing Denver Center
Thu 09:53:28 PM 40.8497 -104.8822 352° North 380 437 26,300 1,008 Climbing Denver Center
Thu 09:54:30 PM 40.9436 -104.9281 340° North 374 430 27,100 774 Climbing Denver Center
Thu 09:55:32 PM 41.0578 -104.9842 340° North 387 445 27,900 871 Climbing Denver Center
Thu 09:56:34 PM 41.1558 -105.0317 340° North 391 450 28,900 1,016 Climbing Denver Center
Thu 09:57:36 PM 41.2706 -105.0900 339° North 395 455 30,000 919 Climbing Denver Center
Thu 09:58:38 PM 41.3686 -105.1383 340° North 392 451 30,800 823 Climbing Denver Center
Thu 09:59:40 PM 41.4661 -105.1869 340° North 391 450 31,700 726 Climbing Denver Center
Thu 10:00:42 PM 41.5781 -105.2486 338° Northwest 391 450 32,300 629 Climbing Denver Center
Thu 10:01:44 PM 41.6569 -105.3369 320° Northwest 383 441 33,000 774 Climbing Denver Center
Thu 10:02:46 PM 41.7533 -105.4414 321° Northwest 393 452 33,900 484 Climbing Denver Center
Thu 10:03:48 PM 41.8336 -105.5278 321° Northwest 389 448 34,000 48 Climbing Denver Center
Thu 10:04:50 PM 41.9294 -105.6319 321° Northwest 392 451 34,000  Level Denver Center
Thu 10:05:52 PM 42.0133 -105.7247 321° Northwest 399 459 34,000  Level Denver Center
Thu 10:06:54 PM 42.1103 -105.8317 321° Northwest 402 463 34,000  Level Denver Center
Thu 10:07:56 PM 42.1956 -105.9256 321° Northwest 410 472 34,000  Level Denver Center
Thu 10:08:58 PM 42.2953 -106.0356 321° Northwest 413 475 34,000  Level Denver Center
Thu 10:09:59 PM 42.3667 -106.1136 321° Northwest 414 476 34,000  Level Denver Center
Thu 10:11:02 PM 42.4661 -106.2247 321° Northwest 414 476 34,000  Level Denver Center
Thu 10:12:04 PM 42.5664 -106.3356 321° Northwest 414 476 34,000  Level Denver Center
Thu 10:13:06 PM 42.6486 -106.4308 320° Northwest 410 472 34,000  Level Denver Center
Thu 10:14:07 PM 42.7469 -106.5425 320° Northwest 411 473 34,000  Level Denver Center
Thu 10:15:09 PM 42.8322 -106.6383 321° Northwest 413 475 34,000  Level Denver Center
Thu 10:16:11 PM 42.9031 -106.7181 321° Northwest 413 475 34,000  Level Denver Center
Thu 10:17:13 PM 43.0019 -106.8322 320° Northwest 416 479 34,000  Level Denver Center
Thu 10:18:15 PM 43.1014 -106.9442 321° Northwest 415 478 34,000  Level Denver Center
Thu 10:18:39 PM 43.1403 -106.9914 318° Northwest 415 478 34,000  Level Salt Lake Center
Thu 10:19:41 PM 43.2414 -107.1044 321° Northwest 419 482 34,000  Level Salt Lake Center
Thu 10:20:19 PM 43.2992 -107.1697 321° Northwest 419 482 34,000  Level Denver Center
Thu 10:21:21 PM 43.3858 -107.2692 320° Northwest 422 486 34,000  Level Denver Center
Thu 10:21:45 PM 43.4281 -107.3189 319° Northwest 419 482 34,000 -977 Level Salt Lake Center
Thu 10:22:47 PM 43.5147 -107.4178 320° Northwest 422 486 32,600 -1,742 Descending Salt Lake Center
Thu 10:23:49 PM 43.6019 -107.5194 320° Northwest 425 489 30,400 -2,177 Descending Salt Lake Center
Thu 10:24:51 PM 43.6964 -107.6281 320° Northwest 397 457 28,100 -1,984 Descending Salt Lake Center
Thu 10:25:53 PM 43.7789 -107.7228 320° Northwest 400 460 26,300 -1,902 Descending Salt Lake Center
Thu 10:26:54 PM 43.8772 -107.8392 320° Northwest 414 476 24,200 -1,951 Descending Salt Lake Center
Thu 10:27:56 PM 43.9597 -107.9367 320° Northwest 407 468 22,300 -1,935 Descending Salt Lake Center
Thu 10:28:58 PM 44.0572 -108.0514 320° Northwest 409 471 20,200 -1,887 Descending Salt Lake Center
Thu 10:30:00 PM 44.1378 -108.1478 319° Northwest 403 464 18,400 -1,707 Descending Salt Lake Center
Thu 10:31:01 PM 44.2194 -108.2439 320° Northwest 401 461 16,700 -1,854 Descending Salt Lake Center
Thu 10:32:03 PM 44.3128 -108.3558 319° Northwest 398 458 14,600 -1,887 Descending Salt Lake Center
Thu 10:33:05 PM 44.3908 -108.4503 319° Northwest 392 451 12,800 -1,920 Descending Salt Lake Center
Thu 10:34:08 PM 44.4778 -108.5525 320° Northwest 379 436 10,600 -1,355 Descending Salt Lake Center
Thu 10:35:09 PM 44.5394 -108.6281 319° Northwest 339 390 10,000 -634 Descending Salt Lake Center
Thu 10:36:11 PM 44.6039 -108.7028 320° Northwest 289 333 9,300 -968 Descending Salt Lake Center
Thu 10:37:13 PM 44.6414 -108.7803 304° West 275 316 8,000 -732 Descending Salt Lake Center
Thu 10:38:14 PM 44.6167 -108.8536 245° Southwest 236 272 7,800 -439 Descending Salt Lake Center
Thu 10:39:16 PM 44.5853 -108.9100 232° Southwest 187 215 7,100 -677 Descending Salt Lake Center

Login

Don't have an account? Register now (free) for customized features, flight alerts, and more!